Skardu Weather



Skardu's Current Weather

Temprature -18.52o overcast clouds

overcast clouds

Rain: 0 %

Min Temprature-18.52o
Max Temprature-18.52o
Humidity79
Wind Speed0.55 m/h
Sun Rise07:00:47
Sun Set17:19:04
Current Time: 27-Jan-2020 18:25:13
Lat/Lon: 35.29, 75.63




Skardu's Geo Location



Skardu's Weather Forecast

Time Overall Temp Min Temp Max Temp Humidity Wind Speed Rain
27-Jan-2020 (Mon)
20:00:00 overcast clouds -19.960 -19.960 -19.960 70 0.88 m/h 0 %
23:00:00 overcast clouds -21.720 -21.720 -21.720 67 0.54 m/h 0 %
28-Jan-2020 (Tue)
02:00:00 overcast clouds -22.020 -22.020 -22.020 68 0.6 m/h 0 %
05:00:00 overcast clouds -21.790 -21.790 -21.790 76 0.45 m/h 0 %
08:00:00 overcast clouds -20.330 -20.330 -20.330 78 0.12 m/h 0 %
11:00:00 overcast clouds -17.580 -17.580 -17.580 76 1.08 m/h 0 %
14:00:00 overcast clouds -15.430 -15.430 -15.430 69 0.69 m/h 0 %
17:00:00 overcast clouds -16.920 -16.920 -16.920 86 0.75 m/h 0 %
20:00:00 overcast clouds -16.660 -16.660 -16.660 87 1.58 m/h 0 %
23:00:00 light snow -17.640 -17.640 -17.640 97 0.1 m/h 0 %
29-Jan-2020 (Wed)
02:00:00 light snow -16.880 -16.880 -16.880 97 0.84 m/h 0 %
05:00:00 light snow -17.320 -17.320 -17.320 97 0.14 m/h 0 %
08:00:00 light snow -16.760 -16.760 -16.760 93 0.42 m/h 0 %
11:00:00 light snow -13.810 -13.810 -13.810 84 1.66 m/h 0 %
14:00:00 light snow -12.650 -12.650 -12.650 88 1.68 m/h 0 %
17:00:00 light snow -15.780 -15.780 -15.780 95 0.9 m/h 0 %
20:00:00 broken clouds -18.470 -18.470 -18.470 94 0.96 m/h 0 %
23:00:00 broken clouds -18.970 -18.970 -18.970 93 0.42 m/h 0 %
30-Jan-2020 (Thu)
02:00:00 overcast clouds -18.820 -18.820 -18.820 92 0.23 m/h 0 %
05:00:00 light snow -20.690 -20.690 -20.690 93 0.34 m/h 0 %
08:00:00 light snow -19.830 -19.830 -19.830 91 0.49 m/h 0 %
11:00:00 overcast clouds -15.740 -15.740 -15.740 84 1.46 m/h 0 %
14:00:00 broken clouds -13.850 -13.850 -13.850 80 1.4 m/h 0 %
17:00:00 scattered clouds -19.170 -19.170 -19.170 96 0.41 m/h 0 %
20:00:00 few clouds -21.070 -21.070 -21.070 86 1.01 m/h 0 %
23:00:00 broken clouds -21.460 -21.460 -21.460 81 0.6 m/h 0 %
31-Jan-2020 (Fri)
02:00:00 overcast clouds -22.010 -22.010 -22.010 91 0.34 m/h 0 %
05:00:00 overcast clouds -22.390 -22.390 -22.390 91 0.59 m/h 0 %
08:00:00 overcast clouds -21.910 -21.910 -21.910 89 0.63 m/h 0 %
11:00:00 overcast clouds -18.160 -18.160 -18.160 76 1.38 m/h 0 %
14:00:00 light snow -16.030 -16.030 -16.030 77 1.29 m/h 0 %
17:00:00 light snow -17.200 -17.200 -17.200 88 0.6 m/h 0 %
20:00:00 overcast clouds -19.690 -19.690 -19.690 89 0.23 m/h 0 %
23:00:00 overcast clouds -21.080 -21.080 -21.080 91 0.27 m/h 0 %
01-Feb-2020 (Sat)
02:00:00 overcast clouds -22.870 -22.870 -22.870 91 0.54 m/h 0 %
05:00:00 overcast clouds -24.040 -24.040 -24.040 87 0.53 m/h 0 %
08:00:00 broken clouds -22.980 -22.980 -22.980 82 0.26 m/h 0 %
11:00:00 scattered clouds -18.150 -18.150 -18.150 79 1.53 m/h 0 %
14:00:00 clear sky -15.960 -15.960 -15.960 72 1.68 m/h 0 %
17:00:00 clear sky -21.290 -21.290 -21.290 89 0.39 m/h 0 %

Famous Cities (61)